Time;durP1;ratioP1;P1;durP2;ratioP2;P2;SDS_P1;SDS_P2;PMS_P1;PMS_P2;Temp;Humidity;BMP_temperature;BMP_pressure;BME280_temperature;BME280_humidity;BME280_pressure;Samples;Min_cycle;Max_cycle;Signal;HPM_P1;HPM_P2
2022/08/26 00:02:25;;;;;;;4.60;4.25;;;20.20;72.60;;;;;;4948324;28;20043;-63
2022/08/26 00:04:51;;;;;;;6.13;4.10;;;20.30;72.80;;;;;;4947942;28;20042;-63
2022/08/26 00:07:17;;;;;;;4.75;4.38;;;20.20;72.80;;;;;;4948152;28;20069;-63
2022/08/26 00:09:42;;;;;;;4.88;4.05;;;20.10;73.00;;;;;;4948865;28;20129;-63
2022/08/26 00:12:08;;;;;;;4.57;4.18;;;20.10;73.20;;;;;;4941349;28;20071;-63
2022/08/26 00:14:34;;;;;;;4.78;4.28;;;20.10;73.30;;;;;;4949211;28;20039;-64
2022/08/26 00:16:59;;;;;;;4.85;4.35;;;20.10;73.30;;;;;;4951241;28;20483;-61
2022/08/26 00:19:25;;;;;;;4.90;4.50;;;20.10;73.20;;;;;;4948465;28;20522;-63
2022/08/26 00:21:52;;;;;;;5.13;4.63;;;20.10;73.30;;;;;;4949381;28;20035;-63
2022/08/26 00:24:19;;;;;;;4.55;4.25;;;20.10;73.30;;;;;;4946737;28;20089;-64
2022/08/26 00:26:45;;;;;;;5.45;4.97;;;20.10;73.50;;;;;;4948065;28;20545;-62
2022/08/26 00:29:11;;;;;;;6.72;5.32;;;20.00;73.50;;;;;;4950157;28;21507;-62
2022/08/26 00:31:37;;;;;;;5.88;4.85;;;20.00;73.70;;;;;;4950717;28;20042;-62
2022/08/26 00:34:03;;;;;;;5.10;4.63;;;19.90;73.80;;;;;;4952120;28;20419;-62
2022/08/26 00:36:28;;;;;;;5.18;4.68;;;19.90;73.90;;;;;;4949399;28;20122;-63
2022/08/26 00:38:54;;;;;;;5.10;4.63;;;19.90;74.00;;;;;;4948496;28;20035;-63
2022/08/26 00:41:20;;;;;;;5.45;4.60;;;19.80;74.10;;;;;;4947342;28;20035;-62
2022/08/26 00:43:45;;;;;;;5.18;4.78;;;19.80;74.20;;;;;;4949955;28;20495;-61
2022/08/26 00:46:24;;;;;;;4.93;4.53;;;19.80;74.30;;;;;;4949952;28;20414;-62
2022/08/26 00:48:57;;;;;;;5.22;4.72;;;19.80;74.90;;;;;;4951427;28;20106;-62
2022/08/26 00:51:26;;;;;;;4.78;4.28;;;19.80;74.60;;;;;;4949865;28;20035;-62
2022/08/26 00:53:59;;;;;;;4.68;4.38;;;19.80;74.60;;;;;;4948947;28;20031;-62
2022/08/26 00:56:58;;;;;;;5.38;4.82;;;19.80;74.80;;;;;;4947414;28;20539;-62
2022/08/26 00:59:25;;;;;;;4.95;4.55;;;19.80;75.10;;;;;;4942787;28;20047;-62
2022/08/26 01:01:50;;;;;;;4.97;4.43;;;19.80;74.40;;;;;;4939849;28;20440;-62
2022/08/26 01:04:20;;;;;;;6.88;4.85;;;19.80;74.50;;;;;;4949007;28;20036;-62
2022/08/26 01:06:47;;;;;;;5.05;4.65;;;19.80;74.60;;;;;;4949952;28;20035;-62
2022/08/26 01:09:14;;;;;;;9.82;5.28;;;19.80;74.40;;;;;;4944926;28;20877;-61
2022/08/26 01:11:40;;;;;;;5.25;4.82;;;19.80;74.40;;;;;;4945125;28;20042;-62
2022/08/26 01:14:07;;;;;;;5.25;4.72;;;19.80;74.70;;;;;;4947659;28;20027;-61
2022/08/26 01:16:33;;;;;;;5.03;4.63;;;19.80;74.60;;;;;;4947335;28;20158;-62
2022/08/26 01:19:17;;;;;;;5.50;5.00;;;19.80;74.50;;;;;;4949374;28;20038;-62
2022/08/26 01:21:51;;;;;;;5.30;4.80;;;19.80;75.00;;;;;;4952632;28;20066;-62
2022/08/26 01:24:17;;;;;;;6.05;4.75;;;19.80;74.90;;;;;;4945754;28;20066;-62
2022/08/26 01:26:44;;;;;;;5.35;4.85;;;19.70;74.70;;;;;;4951586;28;20389;-62
2022/08/26 01:29:14;;;;;;;5.25;4.75;;;19.70;74.90;;;;;;4947487;28;20111;-62
2022/08/26 01:31:51;;;;;;;7.95;5.28;;;19.70;75.30;;;;;;4944922;28;20035;-61
2022/08/26 01:34:21;;;;;;;5.97;5.47;;;19.70;75.60;;;;;;4946559;28;20586;-62
2022/08/26 01:36:56;;;;;;;5.05;4.60;;;19.70;75.40;;;;;;4948841;28;20126;-62
2022/08/26 01:39:22;;;;;;;5.28;4.78;;;19.70;75.60;;;;;;4945223;28;20318;-64
2022/08/26 01:41:49;;;;;;;5.00;4.60;;;19.70;75.30;;;;;;4950299;28;20031;-62
2022/08/26 01:44:20;;;;;;;5.55;4.57;;;19.60;75.30;;;;;;4944673;28;20409;-62
2022/08/26 01:46:48;;;;;;;4.72;4.38;;;19.60;75.40;;;;;;4947641;28;20152;-61
2022/08/26 01:49:15;;;;;;;5.38;4.80;;;19.60;75.40;;;;;;4945483;28;20032;-59
2022/08/26 01:51:43;;;;;;;5.07;4.57;;;19.60;75.40;;;;;;4951743;28;20042;-59
2022/08/26 01:54:10;;;;;;;5.53;4.85;;;19.60;75.30;;;;;;4946749;28;20038;-63
2022/08/26 01:56:36;;;;;;;4.60;4.20;;;19.60;75.20;;;;;;4946921;28;20035;-62
2022/08/26 01:59:07;;;;;;;4.60;4.20;;;19.60;75.20;;;;;;4947507;28;20098;-62
2022/08/26 02:01:33;;;;;;;5.03;4.63;;;19.50;75.60;;;;;;4947637;28;20047;-61
2022/08/26 02:04:12;;;;;;;4.53;4.13;;;19.50;75.40;;;;;;4948843;28;20039;-60
2022/08/26 02:06:38;;;;;;;5.30;4.72;;;19.50;76.00;;;;;;4950664;28;20130;-60
2022/08/26 02:09:05;;;;;;;4.53;4.22;;;19.50;75.70;;;;;;4946100;28;20069;-60
2022/08/26 02:11:32;;;;;;;4.50;4.20;;;19.40;76.60;;;;;;4947790;28;20027;-62
2022/08/26 02:14:02;;;;;;;4.72;4.32;;;19.40;75.90;;;;;;4950852;28;20035;-59
2022/08/26 02:16:32;;;;;;;4.70;4.18;;;19.40;76.00;;;;;;4950567;28;20098;-61
2022/08/26 02:18:59;;;;;;;4.82;4.43;;;19.40;76.00;;;;;;4951716;28;20392;-61
2022/08/26 02:21:25;;;;;;;4.57;4.18;;;19.40;76.10;;;;;;4948871;28;20483;-61
2022/08/26 02:23:51;;;;;;;4.93;4.53;;;19.40;76.00;;;;;;4942175;28;20133;-62
2022/08/26 02:26:20;;;;;;;4.82;4.32;;;19.40;76.00;;;;;;4949110;28;20087;-62
2022/08/26 02:28:51;;;;;;;4.95;4.53;;;19.30;76.40;;;;;;4949770;28;20035;-60
2022/08/26 02:31:17;;;;;;;4.93;4.47;;;19.40;77.20;;;;;;4950900;28;20031;-61
2022/08/26 02:33:43;;;;;;;6.22;4.60;;;19.30;76.00;;;;;;4950450;28;20042;-60
2022/08/26 02:36:09;;;;;;;5.25;4.28;;;19.40;76.00;;;;;;4952430;28;20038;-62
2022/08/26 02:38:35;;;;;;;4.85;4.45;;;19.30;75.90;;;;;;4950674;28;20027;-61
2022/08/26 02:41:01;;;;;;;5.20;4.80;;;19.30;75.80;;;;;;4950570;28;20035;-60
2022/08/26 02:43:27;;;;;;;4.47;4.18;;;19.30;75.90;;;;;;4950803;28;20039;-60
2022/08/26 02:45:52;;;;;;;5.03;4.53;;;19.30;76.00;;;;;;4955598;28;20047;-62
2022/08/26 02:48:20;;;;;;;4.80;4.30;;;19.20;76.00;;;;;;4951498;28;20431;-61
2022/08/26 02:50:49;;;;;;;5.55;4.65;;;19.10;76.10;;;;;;4952566;28;20106;-61
2022/08/26 02:53:15;;;;;;;5.00;4.60;;;19.10;76.30;;;;;;4947847;28;20035;-61
2022/08/26 02:55:41;;;;;;;5.90;4.60;;;19.10;76.30;;;;;;4950548;28;20365;-62
2022/08/26 02:58:07;;;;;;;5.15;4.75;;;19.10;76.50;;;;;;4950430;28;20125;-62
2022/08/26 03:00:36;;;;;;;5.32;4.55;;;19.00;76.60;;;;;;4949460;28;20137;-61
2022/08/26 03:03:01;;;;;;;5.25;4.53;;;19.00;76.90;;;;;;4950892;28;20093;-62
2022/08/26 03:05:27;;;;;;;5.18;4.78;;;18.90;76.90;;;;;;4952912;28;20487;-60
2022/08/26 03:07:53;;;;;;;4.75;4.35;;;18.90;77.00;;;;;;4950979;28;20498;-62
2022/08/26 03:10:19;;;;;;;5.03;4.57;;;18.90;77.00;;;;;;4951996;28;20036;-62
2022/08/26 03:12:45;;;;;;;5.18;4.78;;;18.90;77.00;;;;;;4943971;28;20042;-62
2022/08/26 03:15:13;;;;;;;5.35;4.93;;;18.80;77.10;;;;;;4952642;28;20085;-61
2022/08/26 03:17:39;;;;;;;5.65;5.05;;;18.80;77.20;;;;;;4956450;28;20503;-62
2022/08/26 03:20:08;;;;;;;4.85;4.43;;;18.80;77.10;;;;;;4954659;28;20038;-62
2022/08/26 03:22:36;;;;;;;4.88;4.47;;;18.80;77.20;;;;;;4954470;28;20038;-61
2022/08/26 03:25:03;;;;;;;6.55;4.35;;;18.80;77.20;;;;;;4953980;28;20054;-61
2022/08/26 03:27:29;;;;;;;4.75;4.35;;;18.80;77.20;;;;;;4955771;28;20553;-60
2022/08/26 03:32:38;;;;;;;5.40;4.90;;;18.80;77.90;;;;;;4949738;28;20626;-62
2022/08/26 03:35:04;;;;;;;5.18;4.70;;;18.70;77.00;;;;;;4952790;28;20042;-61
2022/08/26 03:37:30;;;;;;;5.38;4.85;;;18.70;77.20;;;;;;4946409;28;20063;-62
2022/08/26 03:39:56;;;;;;;4.80;4.30;;;18.70;77.00;;;;;;4951978;28;20133;-62
2022/08/26 03:42:22;;;;;;;4.90;4.43;;;18.70;77.10;;;;;;4936086;28;20393;-61
2022/08/26 03:44:48;;;;;;;4.97;4.57;;;18.70;77.20;;;;;;4950741;28;20306;-61
2022/08/26 03:47:13;;;;;;;5.00;4.55;;;18.70;77.20;;;;;;4949304;28;20089;-61
2022/08/26 03:49:40;;;;;;;5.10;4.65;;;18.70;77.40;;;;;;4953586;28;20070;-62
2022/08/26 03:52:06;;;;;;;6.30;4.50;;;18.70;77.10;;;;;;4948558;28;20105;-60
2022/08/26 03:54:32;;;;;;;5.47;4.80;;;18.60;77.00;;;;;;4951397;28;20032;-61
2022/08/26 03:56:58;;;;;;;4.97;4.47;;;18.60;77.20;;;;;;4955052;28;20046;-61
2022/08/26 03:59:23;;;;;;;5.93;5.00;;;18.60;77.20;;;;;;4949361;28;20056;-62
2022/08/26 04:01:49;;;;;;;6.95;4.80;;;18.60;77.20;;;;;;4952112;28;20408;-62
2022/08/26 04:04:15;;;;;;;7.25;4.80;;;18.60;77.20;;;;;;4950567;28;20392;-62
2022/08/26 04:06:42;;;;;;;5.20;4.80;;;18.50;77.20;;;;;;4949404;28;20588;-62
2022/08/26 04:09:14;;;;;;;6.15;4.90;;;18.50;77.30;;;;;;4952116;28;20066;-62
2022/08/26 04:11:43;;;;;;;5.18;4.78;;;18.40;77.70;;;;;;4943745;28;20046;-62
2022/08/26 04:14:13;;;;;;;7.78;5.20;;;18.30;77.70;;;;;;4949255;28;20041;-61
2022/08/26 04:16:40;;;;;;;5.95;5.32;;;18.30;77.90;;;;;;4946652;28;20051;-63
2022/08/26 04:19:06;;;;;;;6.68;4.90;;;18.20;77.90;;;;;;4951083;28;20031;-62
2022/08/26 04:21:31;;;;;;;5.70;5.05;;;18.20;78.00;;;;;;4944113;28;20042;-62
2022/08/26 04:23:57;;;;;;;5.32;4.82;;;18.20;78.20;;;;;;4948523;28;20046;-62
2022/08/26 04:26:23;;;;;;;4.82;4.47;;;18.10;78.20;;;;;;4947098;28;20043;-61
2022/08/26 04:28:51;;;;;;;5.63;5.18;;;18.20;78.60;;;;;;4950338;28;20510;-62
2022/08/26 04:31:18;;;;;;;5.55;4.68;;;18.20;78.90;;;;;;4944228;28;20042;-61
2022/08/26 04:33:46;;;;;;;4.95;4.53;;;18.20;78.80;;;;;;4948633;28;20035;-62
2022/08/26 04:36:12;;;;;;;6.90;5.18;;;18.20;78.80;;;;;;4948814;28;20503;-62
2022/08/26 04:38:38;;;;;;;6.00;4.97;;;18.20;78.60;;;;;;4948031;28;20097;-62
2022/08/26 04:41:07;;;;;;;5.32;4.85;;;18.30;78.60;;;;;;4950620;28;20114;-60
2022/08/26 04:43:32;;;;;;;5.32;4.93;;;18.30;78.60;;;;;;4948417;28;20035;-62
2022/08/26 04:46:03;;;;;;;5.43;4.82;;;18.30;78.20;;;;;;4949877;28;20035;-62
2022/08/26 04:48:30;;;;;;;5.38;4.88;;;18.30;78.40;;;;;;4948740;28;20065;-61
2022/08/26 04:50:55;;;;;;;4.82;4.53;;;18.30;78.20;;;;;;4949103;28;20126;-60
2022/08/26 04:53:21;;;;;;;5.13;4.72;;;18.30;78.30;;;;;;4949633;28;20581;-60
2022/08/26 04:55:47;;;;;;;5.35;4.95;;;18.30;78.50;;;;;;4951385;28;20046;-62
2022/08/26 04:58:18;;;;;;;5.60;4.97;;;18.30;78.70;;;;;;4951977;28;20039;-61
2022/08/26 05:00:47;;;;;;;5.72;5.18;;;18.30;78.80;;;;;;4928837;28;20957;-60
2022/08/26 05:03:12;;;;;;;6.60;4.93;;;18.30;78.80;;;;;;4947089;28;20039;-63
2022/08/26 05:05:42;;;;;;;5.75;5.25;;;18.30;78.90;;;;;;4947756;28;20550;-62
2022/08/26 05:08:12;;;;;;;5.90;5.00;;;18.30;79.20;;;;;;4951397;28;20035;-61
2022/08/26 05:10:44;;;;;;;7.75;5.18;;;18.40;79.50;;;;;;4944438;28;20078;-60
2022/08/26 05:13:11;;;;;;;5.63;5.13;;;18.40;79.80;;;;;;4944397;28;20094;-61
2022/08/26 05:15:37;;;;;;;6.15;5.55;;;18.50;79.70;;;;;;4946564;28;20511;-60
2022/08/26 05:18:05;;;;;;;9.50;6.03;;;18.50;79.50;;;;;;4951304;28;20080;-60
2022/08/26 05:20:33;;;;;;;7.40;5.68;;;18.50;79.60;;;;;;4945461;28;20371;-60
2022/08/26 05:23:00;;;;;;;6.95;5.70;;;18.50;79.70;;;;;;4951072;28;20105;-62
2022/08/26 05:25:27;;;;;;;7.18;6.05;;;18.50;79.80;;;;;;4946410;28;20101;-61
2022/08/26 05:27:52;;;;;;;6.97;6.28;;;18.60;80.00;;;;;;4950864;28;20039;-61
2022/08/26 05:30:18;;;;;;;9.57;6.57;;;18.60;80.00;;;;;;4948540;28;20496;-60
2022/08/26 05:32:47;;;;;;;9.07;6.97;;;18.70;80.10;;;;;;4947062;28;22524;-62
2022/08/26 05:35:13;;;;;;;9.30;6.60;;;18.70;80.30;;;;;;4949102;28;20049;-61
2022/08/26 05:37:39;;;;;;;7.25;6.50;;;18.80;80.30;;;;;;4947432;28;20039;-62
2022/08/26 05:40:05;;;;;;;7.80;7.00;;;18.90;80.50;;;;;;4949227;28;20047;-61
2022/08/26 05:42:32;;;;;;;11.70;7.45;;;18.90;80.30;;;;;;4945017;28;20039;-62
2022/08/26 05:44:57;;;;;;;8.68;7.30;;;19.00;80.40;;;;;;4952318;28;20034;-61
2022/08/26 05:47:23;;;;;;;8.27;6.88;;;19.10;80.60;;;;;;4951672;28;20517;-61
2022/08/26 05:49:49;;;;;;;9.20;7.13;;;19.10;81.20;;;;;;4955267;28;20447;-61
2022/08/26 05:52:15;;;;;;;8.10;7.10;;;19.20;80.30;;;;;;4954033;28;20308;-61
2022/08/26 05:54:40;;;;;;;11.57;7.15;;;19.30;80.40;;;;;;4948500;28;20026;-60
2022/08/26 05:57:06;;;;;;;10.88;7.40;;;19.40;80.10;;;;;;4953701;28;20034;-61
2022/08/26 05:59:31;;;;;;;11.90;7.15;;;19.40;80.30;;;;;;4954469;28;20042;-62
2022/08/26 06:01:58;;;;;;;10.45;6.72;;;19.40;80.10;;;;;;4952679;28;20073;-62
2022/08/26 06:04:24;;;;;;;12.32;7.13;;;19.60;79.90;;;;;;4950540;28;20075;-62
2022/08/26 06:06:50;;;;;;;12.07;7.50;;;19.60;79.70;;;;;;4951139;28;20130;-62
2022/08/26 06:09:15;;;;;;;12.48;8.35;;;19.70;80.50;;;;;;4950696;28;20069;-62
2022/08/26 06:11:41;;;;;;;11.43;6.78;;;19.70;79.50;;;;;;4945078;28;20122;-62
2022/08/26 06:14:07;;;;;;;10.07;7.97;;;19.90;79.40;;;;;;4945237;28;20047;-61
2022/08/26 06:16:37;;;;;;;12.13;7.78;;;19.90;79.40;;;;;;4951659;28;20078;-62
2022/08/26 06:19:04;;;;;;;8.98;6.93;;;20.00;80.10;;;;;;4952853;28;20459;-62
2022/08/26 06:21:33;;;;;;;15.02;7.90;;;20.10;79.20;;;;;;4946500;28;20038;-61
2022/08/26 06:26:52;;;;;;;7.75;7.00;;;20.20;79.00;;;;;;4951454;28;20414;-61
2022/08/26 06:29:20;;;;;;;10.68;7.15;;;20.30;78.70;;;;;;4952912;28;20069;-61
2022/08/26 06:31:46;;;;;;;12.77;7.97;;;20.40;78.70;;;;;;4952605;28;20089;-61
2022/08/26 06:34:12;;;;;;;11.93;7.53;;;20.40;78.80;;;;;;4953016;28;20522;-59
2022/08/26 06:36:40;;;;;;;11.60;7.43;;;20.50;78.90;;;;;;4948941;28;20736;-62
2022/08/26 06:39:08;;;;;;;10.57;7.95;;;20.60;78.90;;;;;;4950828;28;20058;-61
2022/08/26 06:41:36;;;;;;;12.02;7.65;;;20.60;78.90;;;;;;4933165;28;20050;-62
2022/08/26 06:44:03;;;;;;;10.20;7.47;;;20.70;78.90;;;;;;4936154;28;20032;-61
2022/08/26 06:46:29;;;;;;;12.10;8.05;;;20.80;79.00;;;;;;4941147;28;20035;-64
2022/08/26 06:48:59;;;;;;;12.15;8.02;;;20.90;78.90;;;;;;4950790;28;20067;-62
2022/08/26 06:51:31;;;;;;;17.85;7.88;;;20.90;78.70;;;;;;4950454;28;20035;-62
2022/08/26 06:54:00;;;;;;;15.18;9.55;;;21.00;78.80;;;;;;4950588;28;20479;-61
2022/08/26 06:56:31;;;;;;;18.95;9.13;;;21.10;78.40;;;;;;4945852;28;20077;-62
2022/08/26 06:58:57;;;;;;;13.32;9.27;;;21.20;78.40;;;;;;4955563;28;20063;-61
2022/08/26 07:01:31;;;;;;;14.75;8.85;;;21.20;78.10;;;;;;4952990;28;20377;-62
2022/08/26 07:04:00;;;;;;;13.63;8.70;;;21.30;78.40;;;;;;4950094;28;20575;-62
2022/08/26 07:06:27;;;;;;;12.90;8.68;;;21.40;77.70;;;;;;4942849;28;20406;-59
2022/08/26 07:09:00;;;;;;;10.82;8.63;;;21.50;77.50;;;;;;4951324;28;20348;-62
2022/08/26 07:11:26;;;;;;;11.35;8.85;;;21.50;77.60;;;;;;4947554;28;20050;-63
2022/08/26 07:13:53;;;;;;;10.70;8.90;;;21.60;77.20;;;;;;4948843;28;20042;-62
2022/08/26 07:16:18;;;;;;;13.73;8.68;;;21.60;76.80;;;;;;4945736;28;20047;-63
2022/08/26 07:18:45;;;;;;;10.82;8.70;;;21.70;76.50;;;;;;4941414;28;20070;-62
2022/08/26 07:21:13;;;;;;;11.30;8.52;;;21.70;76.30;;;;;;4940372;28;20457;-63
2022/08/26 07:23:39;;;;;;;11.45;8.40;;;21.80;76.10;;;;;;4946093;28;20538;-63
2022/08/26 07:26:07;;;;;;;10.75;8.38;;;21.80;76.00;;;;;;4947033;28;20467;-61
2022/08/26 07:28:33;;;;;;;10.05;8.40;;;21.80;76.00;;;;;;4944228;28;20496;-63
2022/08/26 07:31:03;;;;;;;8.77;7.97;;;21.90;76.30;;;;;;4940828;28;20053;-64
2022/08/26 07:33:29;;;;;;;7.65;6.95;;;21.90;75.90;;;;;;4945934;28;20414;-62
2022/08/26 07:35:54;;;;;;;9.52;8.02;;;22.00;75.80;;;;;;4940955;28;20428;-62
2022/08/26 07:38:20;;;;;;;8.60;7.63;;;22.10;75.30;;;;;;4944063;28;20116;-61
2022/08/26 07:40:46;;;;;;;11.00;7.60;;;22.20;75.10;;;;;;4945371;28;20119;-62
2022/08/26 07:43:12;;;;;;;8.15;7.35;;;22.20;75.00;;;;;;4941814;28;20126;-63
2022/08/26 07:45:38;;;;;;;10.98;7.10;;;22.30;74.70;;;;;;4945215;28;20658;-63
2022/08/26 07:48:04;;;;;;;7.82;7.00;;;22.30;74.50;;;;;;4948186;28;20126;-62
2022/08/26 07:50:30;;;;;;;10.45;8.02;;;22.40;74.50;;;;;;4948740;28;20039;-62
2022/08/26 07:52:55;;;;;;;10.43;8.00;;;22.50;74.80;;;;;;4942606;28;20043;-61
2022/08/26 07:55:21;;;;;;;10.52;8.00;;;22.60;74.90;;;;;;4945854;28;20047;-62
2022/08/26 07:57:47;;;;;;;11.52;8.32;;;22.70;74.90;;;;;;4948321;28;20039;-62
2022/08/26 08:00:15;;;;;;;11.65;7.95;;;22.70;74.60;;;;;;4948330;28;20466;-62
2022/08/26 08:02:43;;;;;;;10.68;8.07;;;22.80;75.00;;;;;;4945758;28;20039;-64
2022/08/26 08:05:10;;;;;;;9.10;8.20;;;22.90;74.70;;;;;;4952039;28;20629;-63
2022/08/26 08:07:36;;;;;;;11.38;8.23;;;23.00;74.60;;;;;;4944341;28;20034;-63
2022/08/26 08:10:03;;;;;;;10.75;7.95;;;23.00;74.50;;;;;;4945434;28;20041;-62
2022/08/26 08:12:28;;;;;;;9.45;8.45;;;23.00;74.10;;;;;;4938887;28;20030;-63
2022/08/26 08:14:54;;;;;;;10.93;8.13;;;23.20;74.00;;;;;;4944504;28;20098;-63
2022/08/26 08:17:20;;;;;;;10.05;8.05;;;23.30;73.70;;;;;;4948000;28;20046;-61
2022/08/26 08:19:45;;;;;;;10.90;7.35;;;23.40;73.30;;;;;;4948853;28;20039;-63
2022/08/26 08:22:11;;;;;;;9.57;7.90;;;23.50;73.50;;;;;;4940755;28;20159;-62
2022/08/26 08:24:37;;;;;;;9.27;8.32;;;23.60;73.30;;;;;;4946631;28;20082;-61
2022/08/26 08:27:03;;;;;;;10.18;8.60;;;23.80;73.10;;;;;;4949041;28;20028;-63
2022/08/26 08:29:29;;;;;;;16.30;8.48;;;23.90;72.80;;;;;;4951885;28;20413;-63
2022/08/26 08:31:55;;;;;;;11.13;7.90;;;24.00;72.30;;;;;;4955180;28;20051;-61
2022/08/26 08:34:22;;;;;;;10.88;8.23;;;24.00;71.70;;;;;;4954476;28;20032;-64
2022/08/26 08:36:48;;;;;;;9.40;7.75;;;24.10;72.20;;;;;;4953641;28;20464;-62
2022/08/26 08:39:13;;;;;;;10.38;8.88;;;24.20;71.80;;;;;;4952667;28;20039;-62
2022/08/26 08:42:05;;;;;;;13.20;8.48;;;24.30;71.60;;;;;;4954113;28;20416;-63
2022/08/26 08:44:32;;;;;;;9.27;7.97;;;24.40;71.10;;;;;;4954061;28;20041;-62
2022/08/26 08:47:02;;;;;;;11.32;8.88;;;24.50;71.30;;;;;;4953728;28;20027;-63
2022/08/26 08:49:30;;;;;;;9.75;8.02;;;24.60;70.90;;;;;;4955313;28;20031;-63
2022/08/26 08:52:08;;;;;;;9.23;7.75;;;24.70;70.90;;;;;;4954561;28;20046;-62
2022/08/26 08:54:34;;;;;;;9.32;8.07;;;24.80;70.60;;;;;;4952185;28;20127;-62
2022/08/26 08:57:16;;;;;;;9.48;7.68;;;24.90;70.60;;;;;;4954353;28;20100;-62
2022/08/26 08:59:55;;;;;;;11.05;7.25;;;25.00;70.30;;;;;;4953201;28;20148;-61
2022/08/26 09:02:40;;;;;;;8.52;7.35;;;25.10;69.90;;;;;;4954484;28;20039;-63
2022/08/26 09:05:40;;;;;;;9.50;7.57;;;25.30;70.00;;;;;;4950656;28;20043;-64
2022/08/26 09:08:20;;;;;;;15.55;8.13;;;25.50;69.30;;;;;;4923120;28;20197;-63
2022/08/26 09:10:48;;;;;;;12.50;8.82;;;25.60;68.60;;;;;;4946833;28;20062;-64
2022/08/26 09:13:17;;;;;;;11.82;8.65;;;25.70;68.50;;;;;;4950546;28;20400;-63
2022/08/26 09:15:56;;;;;;;9.93;8.90;;;25.90;68.40;;;;;;4953261;28;20401;-62
2022/08/26 09:18:51;;;;;;;13.13;9.15;;;26.00;67.20;;;;;;4957025;28;20114;-61
2022/08/26 09:21:19;;;;;;;14.07;8.95;;;26.10;66.90;;;;;;4958384;28;20038;-64
2022/08/26 09:23:45;;;;;;;10.80;8.38;;;26.20;67.00;;;;;;4954291;28;20059;-62
2022/08/26 09:26:24;;;;;;;11.93;9.23;;;26.30;66.80;;;;;;4954713;28;20031;-63
2022/08/26 09:29:04;;;;;;;9.95;8.88;;;26.40;65.80;;;;;;4959864;28;20069;-62
2022/08/26 09:31:32;;;;;;;10.80;8.50;;;26.40;65.60;;;;;;4956512;28;20089;-63
2022/08/26 09:34:13;;;;;;;12.55;8.90;;;26.50;65.90;;;;;;4959262;28;20031;-63
2022/08/26 09:36:57;;;;;;;11.18;8.60;;;26.60;64.50;;;;;;4958994;28;20053;-63
2022/08/26 09:39:22;;;;;;;10.55;7.95;;;26.60;64.80;;;;;;4952851;28;20043;-62
2022/08/26 09:42:29;;;;;;;13.23;8.77;;;26.70;65.30;;;;;;4956723;28;20031;-62
2022/08/26 09:45:01;;;;;;;10.00;8.73;;;26.70;64.60;;;;;;4939212;28;20352;-63
2022/08/26 09:47:30;;;;;;;9.20;7.75;;;26.90;64.20;;;;;;4957933;28;20139;-63
2022/08/26 09:49:57;;;;;;;12.27;8.60;;;26.90;64.30;;;;;;4957875;28;20054;-63
2022/08/26 09:52:25;;;;;;;8.15;7.35;;;27.00;63.90;;;;;;4958742;28;20066;-63
2022/08/26 09:55:06;;;;;;;11.75;7.90;;;27.10;63.80;;;;;;4955629;28;20148;-62
2022/08/26 09:57:34;;;;;;;9.38;7.47;;;27.20;63.00;;;;;;4956030;28;20031;-64
2022/08/26 10:00:01;;;;;;;8.57;6.28;;;27.30;63.20;;;;;;4956720;28;20085;-64
2022/08/26 10:02:36;;;;;;;8.30;6.55;;;27.40;63.00;;;;;;4953309;28;20043;-63
2022/08/26 10:05:06;;;;;;;8.55;7.55;;;27.50;61.90;;;;;;4961508;28;20139;-63
2022/08/26 10:07:49;;;;;;;10.10;6.70;;;27.60;61.40;;;;;;4956211;28;20594;-63
2022/08/26 10:10:38;;;;;;;9.15;7.85;;;27.70;60.30;;;;;;4951153;28;20039;-62
2022/08/26 10:13:15;;;;;;;8.98;6.82;;;27.80;59.10;;;;;;4954006;28;20094;-63
2022/08/26 10:15:57;;;;;;;6.85;5.80;;;27.80;59.40;;;;;;4957805;28;20055;-62
2022/08/26 10:18:36;;;;;;;6.50;5.55;;;27.80;59.40;;;;;;4957167;28;20067;-62
2022/08/26 10:21:19;;;;;;;7.40;4.80;;;27.90;58.40;;;;;;4952096;28;20031;-63
2022/08/26 10:23:52;;;;;;;8.55;5.28;;;27.90;59.00;;;;;;4950897;28;20534;-63
2022/08/26 10:26:33;;;;;;;9.80;6.10;;;28.00;59.50;;;;;;4953971;28;20051;-63
2022/08/26 10:29:23;;;;;;;10.38;6.28;;;28.00;58.00;;;;;;4953257;28;20061;-63
2022/08/26 10:31:58;;;;;;;7.70;6.55;;;28.00;58.40;;;;;;4956049;28;20118;-63
2022/08/26 10:34:24;;;;;;;23.83;7.32;;;28.10;58.50;;;;;;4955964;28;20070;-64
2022/08/26 10:37:00;;;;;;;10.02;7.18;;;28.10;58.60;;;;;;4951491;28;20075;-63
2022/08/26 10:39:33;;;;;;;9.57;6.68;;;28.20;57.80;;;;;;4951331;28;20130;-63
2022/08/26 10:42:03;;;;;;;9.45;6.20;;;28.20;57.90;;;;;;4955870;28;20043;-61
2022/08/26 10:44:33;;;;;;;9.98;7.43;;;28.20;58.20;;;;;;4953745;28;20042;-64
2022/08/26 10:47:07;;;;;;;9.43;6.15;;;28.30;57.20;;;;;;4953459;28;20050;-63
2022/08/26 10:49:34;;;;;;;6.78;6.13;;;28.30;57.70;;;;;;4952764;28;20062;-64
2022/08/26 10:52:16;;;;;;;8.18;6.72;;;28.30;58.10;;;;;;4953150;28;20407;-63
2022/08/26 10:54:48;;;;;;;4.97;4.57;;;28.30;57.60;;;;;;4951892;28;20040;-63
2022/08/26 10:57:13;;;;;;;4.35;4.05;;;28.40;57.70;;;;;;4957897;28;20057;-65
2022/08/26 10:59:52;;;;;;;5.28;3.95;;;28.40;57.70;;;;;;4958700;28;20038;-63
2022/08/26 11:02:20;;;;;;;3.90;3.50;;;28.50;57.00;;;;;;4954255;28;20034;-63
2022/08/26 11:04:54;;;;;;;3.53;3.28;;;28.60;57.70;;;;;;4956332;28;20039;-64
2022/08/26 11:07:34;;;;;;;3.67;3.37;;;28.70;56.60;;;;;;4955247;28;20066;-64
2022/08/26 11:10:06;;;;;;;5.00;3.20;;;28.80;56.20;;;;;;4953104;28;20399;-64
2022/08/26 11:12:37;;;;;;;3.40;3.20;;;28.80;56.00;;;;;;4949024;28;20042;-65
2022/08/26 11:15:34;;;;;;;6.25;3.28;;;28.90;55.70;;;;;;4952867;28;20035;-63
2022/08/26 11:18:03;;;;;;;7.75;3.65;;;29.00;54.90;;;;;;4954020;28;20534;-62
2022/08/26 11:20:43;;;;;;;3.40;3.13;;;29.00;55.00;;;;;;4956779;28;20062;-64
2022/08/26 11:23:12;;;;;;;3.40;3.10;;;29.10;54.10;;;;;;4949558;28;20533;-63
2022/08/26 11:26:07;;;;;;;3.20;2.58;;;29.10;53.80;;;;;;4952455;28;20190;-64
2022/08/26 11:28:39;;;;;;;2.75;2.40;;;29.20;53.50;;;;;;4947926;28;20042;-64
2022/08/26 11:31:11;;;;;;;2.50;2.30;;;29.30;52.90;;;;;;4954690;28;20131;-63
2022/08/26 11:33:58;;;;;;;2.30;2.20;;;29.30;53.00;;;;;;4957017;28;20537;-64
2022/08/26 11:36:33;;;;;;;3.38;1.92;;;29.30;53.10;;;;;;4956282;28;20047;-63
2022/08/26 11:39:11;;;;;;;2.03;1.92;;;29.40;52.90;;;;;;4956103;28;20174;-62
2022/08/26 11:41:37;;;;;;;2.20;1.95;;;29.50;52.90;;;;;;4953911;28;20050;-65
2022/08/26 11:44:05;;;;;;;3.35;2.38;;;29.50;52.50;;;;;;4952838;28;20035;-64
2022/08/26 11:46:36;;;;;;;2.10;1.92;;;29.60;52.50;;;;;;4954573;28;20054;-63
2022/08/26 11:49:05;;;;;;;2.80;1.80;;;29.60;52.30;;;;;;4955443;28;20037;-63
2022/08/26 11:51:31;;;;;;;2.47;1.90;;;29.70;51.70;;;;;;4953696;28;20054;-63
2022/08/26 11:54:15;;;;;;;2.40;2.20;;;29.70;51.70;;;;;;4958116;28;20039;-63
2022/08/26 11:56:43;;;;;;;2.42;2.25;;;29.80;50.30;;;;;;4940939;28;20042;-61
2022/08/26 11:59:14;;;;;;;3.05;2.20;;;29.80;50.80;;;;;;4956551;28;20039;-64
2022/08/26 12:01:43;;;;;;;2.13;1.98;;;29.80;50.90;;;;;;4957884;28;20495;-62
2022/08/26 12:04:16;;;;;;;2.17;2.08;;;29.80;51.10;;;;;;4951846;28;20039;-65
2022/08/26 12:06:49;;;;;;;2.08;1.98;;;29.80;51.00;;;;;;4951303;28;20113;-63
2022/08/26 12:09:26;;;;;;;2.28;2.05;;;29.90;50.10;;;;;;4951165;28;20122;-63
2022/08/26 12:12:08;;;;;;;2.25;2.15;;;29.90;50.10;;;;;;4933547;28;20525;-62
2022/08/26 12:14:34;;;;;;;2.60;2.40;;;29.90;49.60;;;;;;4954760;28;20460;-64
2022/08/26 12:17:15;;;;;;;3.58;2.40;;;30.00;50.70;;;;;;4947061;28;20041;-63
2022/08/26 12:19:41;;;;;;;2.45;2.20;;;30.00;49.90;;;;;;4950527;28;20130;-64
2022/08/26 12:22:14;;;;;;;2.17;2.08;;;30.00;50.40;;;;;;4947939;28;20448;-64
2022/08/26 12:24:50;;;;;;;2.10;2.00;;;30.10;50.10;;;;;;4951290;28;20043;-63
2022/08/26 12:27:25;;;;;;;4.60;2.33;;;30.10;48.60;;;;;;4949804;28;21153;-64
2022/08/26 12:30:06;;;;;;;2.75;2.30;;;30.10;48.40;;;;;;4950033;28;20027;-60
2022/08/26 12:32:32;;;;;;;2.67;2.47;;;30.10;48.00;;;;;;4944955;28;20039;-64
2022/08/26 12:35:01;;;;;;;2.25;1.98;;;30.10;48.60;;;;;;4944186;28;20039;-64
2022/08/26 12:37:28;;;;;;;2.83;1.85;;;30.10;48.50;;;;;;4951592;28;20062;-64
2022/08/26 12:39:54;;;;;;;2.35;2.10;;;30.10;48.30;;;;;;4950153;28;20043;-64
2022/08/26 12:42:21;;;;;;;3.22;2.00;;;30.20;48.20;;;;;;4945930;28;20049;-64
2022/08/26 12:45:02;;;;;;;1.92;1.75;;;30.10;48.00;;;;;;4943113;28;20126;-64
2022/08/26 12:47:37;;;;;;;2.17;1.98;;;30.20;47.50;;;;;;4949393;28;20134;-64
2022/08/26 12:50:05;;;;;;;2.05;1.80;;;30.20;48.60;;;;;;4946317;28;20038;-64
2022/08/26 12:52:49;;;;;;;2.45;1.95;;;30.20;48.40;;;;;;4949023;28;20039;-64
2022/08/26 12:55:22;;;;;;;2.80;2.20;;;30.30;48.50;;;;;;4950099;28;20039;-65
2022/08/26 12:57:47;;;;;;;2.10;1.90;;;30.30;48.30;;;;;;4947671;28;20381;-63
2022/08/26 13:00:33;;;;;;;3.08;2.30;;;30.30;48.80;;;;;;4945595;28;20035;-63
2022/08/26 13:03:00;;;;;;;4.72;1.88;;;30.40;47.80;;;;;;4943404;28;20059;-65
2022/08/26 13:05:34;;;;;;;1.90;1.80;;;30.50;48.40;;;;;;4950845;28;20415;-62